sensor_id;sensor_type;location;lat;lon;timestamp;pressure;altitude;pressure_sealevel;temperature;humidity
77351;BME280;66420;50.246;14.320;2023-03-31T00:01:45;98987.84;;;7.81;83.09
77351;BME280;66420;50.246;14.320;2023-03-31T00:04:30;98979.06;;;7.84;82.69
77351;BME280;66420;50.246;14.320;2023-03-31T00:07:15;98977.69;;;7.73;83.30
77351;BME280;66420;50.246;14.320;2023-03-31T00:10:00;98980.88;;;7.75;83.64
77351;BME280;66420;50.246;14.320;2023-03-31T00:12:45;98973.03;;;7.74;83.56
77351;BME280;66420;50.246;14.320;2023-03-31T00:15:30;98968.28;;;7.66;83.21
77351;BME280;66420;50.246;14.320;2023-03-31T00:18:15;98974.44;;;7.71;83.52
77351;BME280;66420;50.246;14.320;2023-03-31T00:21:08;98975.44;;;7.62;84.05
77351;BME280;66420;50.246;14.320;2023-03-31T00:24:01;98981.50;;;7.58;84.65
77351;BME280;66420;50.246;14.320;2023-03-31T00:26:46;98971.91;;;7.61;83.98
77351;BME280;66420;50.246;14.320;2023-03-31T00:29:31;98972.81;;;7.56;84.23
77351;BME280;66420;50.246;14.320;2023-03-31T00:32:17;98972.03;;;7.56;85.03
77351;BME280;66420;50.246;14.320;2023-03-31T00:35:01;98962.06;;;7.51;84.22
77351;BME280;66420;50.246;14.320;2023-03-31T00:37:47;98955.91;;;7.46;84.66
77351;BME280;66420;50.246;14.320;2023-03-31T00:40:31;98954.66;;;7.52;83.95
77351;BME280;66420;50.246;14.320;2023-03-31T00:43:25;98955.72;;;7.56;84.06
77351;BME280;66420;50.246;14.320;2023-03-31T00:46:16;98946.41;;;7.57;84.03
77351;BME280;66420;50.246;14.320;2023-03-31T00:49:01;98938.94;;;7.49;84.39
77351;BME280;66420;50.246;14.320;2023-03-31T00:51:48;98941.38;;;7.37;84.87
77351;BME280;66420;50.246;14.320;2023-03-31T00:54:35;98932.59;;;7.40;84.49
77351;BME280;66420;50.246;14.320;2023-03-31T00:57:21;98924.44;;;7.40;85.00
77351;BME280;66420;50.246;14.320;2023-03-31T01:00:10;98918.38;;;7.29;85.16
77351;BME280;66420;50.246;14.320;2023-03-31T01:03:07;98922.22;;;7.28;84.86
77351;BME280;66420;50.246;14.320;2023-03-31T01:05:56;98920.91;;;7.26;85.56
77351;BME280;66420;50.246;14.320;2023-03-31T01:08:42;98914.38;;;7.27;85.31
77351;BME280;66420;50.246;14.320;2023-03-31T01:11:29;98905.28;;;7.31;85.67
77351;BME280;66420;50.246;14.320;2023-03-31T01:14:14;98902.84;;;7.30;85.63
77351;BME280;66420;50.246;14.320;2023-03-31T01:16:59;98893.69;;;7.26;85.66
77351;BME280;66420;50.246;14.320;2023-03-31T01:26:09;98875.84;;;7.20;85.88
77351;BME280;66420;50.246;14.320;2023-03-31T01:47:14;98839.56;;;7.10;86.54
77351;BME280;66420;50.246;14.320;2023-03-31T01:52:59;98834.09;;;7.24;86.81
77351;BME280;66420;50.246;14.320;2023-03-31T01:56:01;98835.63;;;7.30;86.16
77351;BME280;66420;50.246;14.320;2023-03-31T01:58:59;98825.81;;;7.43;85.86
77351;BME280;66420;50.246;14.320;2023-03-31T02:04:51;98816.88;;;7.29;86.29
77351;BME280;66420;50.246;14.320;2023-03-31T02:08:08;98820.09;;;7.31;85.70
77351;BME280;66420;50.246;14.320;2023-03-31T02:10:55;98809.00;;;7.41;85.53
77351;BME280;66420;50.246;14.320;2023-03-31T02:13:44;98811.22;;;7.39;85.76
77351;BME280;66420;50.246;14.320;2023-03-31T02:16:32;98802.03;;;7.35;85.76
77351;BME280;66420;50.246;14.320;2023-03-31T02:19:19;98800.44;;;7.34;86.22
77351;BME280;66420;50.246;14.320;2023-03-31T02:22:07;98799.75;;;7.28;86.20
77351;BME280;66420;50.246;14.320;2023-03-31T02:24:53;98799.25;;;7.26;86.27
77351;BME280;66420;50.246;14.320;2023-03-31T02:27:41;98798.66;;;7.16;86.81
77351;BME280;66420;50.246;14.320;2023-03-31T02:33:56;98797.38;;;6.99;87.05
77351;BME280;66420;50.246;14.320;2023-03-31T02:36:42;98796.84;;;7.11;87.01
77351;BME280;66420;50.246;14.320;2023-03-31T02:39:35;98786.25;;;7.23;86.41
77351;BME280;66420;50.246;14.320;2023-03-31T02:42:21;98790.19;;;7.17;85.73
77351;BME280;66420;50.246;14.320;2023-03-31T02:45:59;98782.91;;;7.26;86.01
77351;BME280;66420;50.246;14.320;2023-03-31T02:48:39;98798.94;;;7.28;86.28
77351;BME280;66420;50.246;14.320;2023-03-31T03:00:57;98764.16;;;7.25;86.07
77351;BME280;66420;50.246;14.320;2023-03-31T03:04:41;98768.78;;;7.24;86.54
77351;BME280;66420;50.246;14.320;2023-03-31T03:11:00;98773.25;;;7.06;86.19
77351;BME280;66420;50.246;14.320;2023-03-31T03:16:47;98772.09;;;6.85;86.39
77351;BME280;66420;50.246;14.320;2023-03-31T03:19:33;98772.19;;;6.80;87.25
77351;BME280;66420;50.246;14.320;2023-03-31T03:22:18;98771.69;;;6.92;87.29
77351;BME280;66420;50.246;14.320;2023-03-31T03:25:08;98775.00;;;7.02;86.75
77351;BME280;66420;50.246;14.320;2023-03-31T03:27:53;98768.13;;;7.19;86.51
77351;BME280;66420;50.246;14.320;2023-03-31T03:30:38;98761.00;;;7.45;86.16
77351;BME280;66420;50.246;14.320;2023-03-31T03:33:22;98750.72;;;7.42;85.20
77351;BME280;66420;50.246;14.320;2023-03-31T03:36:09;98740.59;;;7.56;84.55
77351;BME280;66420;50.246;14.320;2023-03-31T03:38:54;98740.19;;;7.49;85.18
77351;BME280;66420;50.246;14.320;2023-03-31T03:41:39;98735.00;;;7.61;83.79
77351;BME280;66420;50.246;14.320;2023-03-31T03:44:23;98731.63;;;7.55;84.61
77351;BME280;66420;50.246;14.320;2023-03-31T03:47:08;98722.47;;;7.51;84.68
77351;BME280;66420;50.246;14.320;2023-03-31T03:49:53;98728.22;;;7.50;84.65
77351;BME280;66420;50.246;14.320;2023-03-31T03:52:38;98713.84;;;7.58;84.97
77351;BME280;66420;50.246;14.320;2023-03-31T03:55:22;98704.81;;;7.71;84.08
77351;BME280;66420;50.246;14.320;2023-03-31T03:58:07;98699.88;;;7.73;84.30
77351;BME280;66420;50.246;14.320;2023-03-31T04:00:52;98695.22;;;7.74;84.12
77351;BME280;66420;50.246;14.320;2023-03-31T04:03:36;98695.75;;;7.84;82.91
77351;BME280;66420;50.246;14.320;2023-03-31T04:06:22;98692.53;;;7.82;83.16
77351;BME280;66420;50.246;14.320;2023-03-31T04:09:06;98695.44;;;7.86;83.25
77351;BME280;66420;50.246;14.320;2023-03-31T04:11:52;98690.13;;;7.81;83.89
77351;BME280;66420;50.246;14.320;2023-03-31T04:14:36;98685.47;;;7.81;84.30
77351;BME280;66420;50.246;14.320;2023-03-31T04:17:21;98676.06;;;7.87;83.53
77351;BME280;66420;50.246;14.320;2023-03-31T04:20:16;98673.16;;;7.84;83.75
77351;BME280;66420;50.246;14.320;2023-03-31T04:23:01;98673.69;;;7.94;83.47
77351;BME280;66420;50.246;14.320;2023-03-31T04:25:49;98675.78;;;7.97;84.04
77351;BME280;66420;50.246;14.320;2023-03-31T04:28:35;98671.59;;;7.91;83.45
77351;BME280;66420;50.246;14.320;2023-03-31T04:31:20;98669.78;;;7.78;84.00
77351;BME280;66420;50.246;14.320;2023-03-31T04:34:13;98666.19;;;7.69;84.91
77351;BME280;66420;50.246;14.320;2023-03-31T04:36:58;98658.50;;;7.71;85.26
77351;BME280;66420;50.246;14.320;2023-03-31T04:39:46;98667.25;;;7.60;85.35
77351;BME280;66420;50.246;14.320;2023-03-31T04:42:34;98657.22;;;7.69;84.48
77351;BME280;66420;50.246;14.320;2023-03-31T04:45:20;98661.84;;;7.68;84.59
77351;BME280;66420;50.246;14.320;2023-03-31T04:48:05;98652.72;;;7.64;85.06
77351;BME280;66420;50.246;14.320;2023-03-31T04:50:49;98652.84;;;7.59;85.58
77351;BME280;66420;50.246;14.320;2023-03-31T04:53:34;98650.75;;;7.56;85.87
77351;BME280;66420;50.246;14.320;2023-03-31T04:56:19;98646.28;;;7.60;85.04
77351;BME280;66420;50.246;14.320;2023-03-31T04:59:04;98650.75;;;7.56;85.70
77351;BME280;66420;50.246;14.320;2023-03-31T05:01:50;98641.81;;;7.64;84.86
77351;BME280;66420;50.246;14.320;2023-03-31T05:04:35;98636.00;;;7.57;85.26
77351;BME280;66420;50.246;14.320;2023-03-31T05:07:20;98640.31;;;7.58;85.80
77351;BME280;66420;50.246;14.320;2023-03-31T05:10:05;98633.03;;;7.45;85.79
77351;BME280;66420;50.246;14.320;2023-03-31T05:12:50;98632.88;;;7.41;86.56
77351;BME280;66420;50.246;14.320;2023-03-31T05:15:38;98628.03;;;7.38;86.23
77351;BME280;66420;50.246;14.320;2023-03-31T05:18:24;98621.03;;;7.46;86.58
77351;BME280;66420;50.246;14.320;2023-03-31T05:21:12;98632.19;;;7.36;86.38
77351;BME280;66420;50.246;14.320;2023-03-31T05:23:58;98618.16;;;7.42;86.92
77351;BME280;66420;50.246;14.320;2023-03-31T05:26:43;98614.75;;;7.37;86.50
77351;BME280;66420;50.246;14.320;2023-03-31T05:29:33;98604.56;;;7.29;87.45
77351;BME280;66420;50.246;14.320;2023-03-31T05:32:18;98589.00;;;7.21;86.93
77351;BME280;66420;50.246;14.320;2023-03-31T05:35:03;98585.97;;;7.22;87.13
77351;BME280;66420;50.246;14.320;2023-03-31T05:37:48;98585.47;;;7.20;86.85
77351;BME280;66420;50.246;14.320;2023-03-31T05:40:33;98579.59;;;7.27;86.73
77351;BME280;66420;50.246;14.320;2023-03-31T05:43:17;98574.28;;;7.22;86.77
77351;BME280;66420;50.246;14.320;2023-03-31T05:46:03;98566.81;;;7.27;86.80
77351;BME280;66420;50.246;14.320;2023-03-31T05:48:47;98563.91;;;7.24;87.36
77351;BME280;66420;50.246;14.320;2023-03-31T05:51:33;98550.31;;;7.24;87.89
77351;BME280;66420;50.246;14.320;2023-03-31T05:54:17;98548.47;;;7.41;87.17
77351;BME280;66420;50.246;14.320;2023-03-31T05:57:03;98549.72;;;7.35;87.04
77351;BME280;66420;50.246;14.320;2023-03-31T05:59:47;98543.50;;;7.43;86.18
77351;BME280;66420;50.246;14.320;2023-03-31T06:02:33;98541.97;;;7.51;86.65
77351;BME280;66420;50.246;14.320;2023-03-31T06:05:17;98536.66;;;7.46;85.67
77351;BME280;66420;50.246;14.320;2023-03-31T06:08:02;98534.19;;;7.75;85.67
77351;BME280;66420;50.246;14.320;2023-03-31T06:10:47;98527.38;;;7.86;84.87
77351;BME280;66420;50.246;14.320;2023-03-31T06:13:32;98515.03;;;7.97;84.14
77351;BME280;66420;50.246;14.320;2023-03-31T06:16:17;98518.47;;;8.20;82.78
77351;BME280;66420;50.246;14.320;2023-03-31T06:19:02;98512.72;;;8.30;82.80
77351;BME280;66420;50.246;14.320;2023-03-31T06:21:47;98518.03;;;8.44;82.76
77351;BME280;66420;50.246;14.320;2023-03-31T06:24:32;98514.19;;;8.45;82.54
77351;BME280;66420;50.246;14.320;2023-03-31T06:27:16;98506.16;;;8.57;81.67
77351;BME280;66420;50.246;14.320;2023-03-31T06:30:01;98509.88;;;8.78;81.54
77351;BME280;66420;50.246;14.320;2023-03-31T06:32:46;98497.50;;;8.98;81.31
77351;BME280;66420;50.246;14.320;2023-03-31T06:35:31;98494.19;;;9.22;80.17
77351;BME280;66420;50.246;14.320;2023-03-31T06:38:15;98493.69;;;9.37;79.16
77351;BME280;66420;50.246;14.320;2023-03-31T06:41:01;98500.41;;;9.48;78.50
77351;BME280;66420;50.246;14.320;2023-03-31T06:43:45;98495.03;;;9.60;77.38
77351;BME280;66420;50.246;14.320;2023-03-31T06:46:30;98493.63;;;9.54;77.17
77351;BME280;66420;50.246;14.320;2023-03-31T06:49:14;98492.97;;;9.49;78.15
77351;BME280;66420;50.246;14.320;2023-03-31T06:51:59;98496.34;;;9.54;77.92
77351;BME280;66420;50.246;14.320;2023-03-31T06:54:45;98498.09;;;9.59;78.62
77351;BME280;66420;50.246;14.320;2023-03-31T06:57:29;98491.50;;;9.60;78.78
77351;BME280;66420;50.246;14.320;2023-03-31T07:00:17;98496.00;;;9.64;78.57
77351;BME280;66420;50.246;14.320;2023-03-31T07:03:03;98498.50;;;9.78;76.74
77351;BME280;66420;50.246;14.320;2023-03-31T07:05:49;98502.53;;;9.72;78.30
77351;BME280;66420;50.246;14.320;2023-03-31T07:08:34;98483.81;;;9.62;77.95
77351;BME280;66420;50.246;14.320;2023-03-31T07:11:19;98482.81;;;9.66;78.02
77351;BME280;66420;50.246;14.320;2023-03-31T07:14:04;98479.38;;;9.78;77.54
77351;BME280;66420;50.246;14.320;2023-03-31T07:16:48;98473.09;;;9.77;77.54
77351;BME280;66420;50.246;14.320;2023-03-31T07:19:34;98470.53;;;9.72;77.39
77351;BME280;66420;50.246;14.320;2023-03-31T07:22:21;98475.03;;;9.77;78.97
77351;BME280;66420;50.246;14.320;2023-03-31T07:25:07;98473.75;;;9.74;78.57
77351;BME280;66420;50.246;14.320;2023-03-31T07:27:51;98461.38;;;9.77;78.63
77351;BME280;66420;50.246;14.320;2023-03-31T07:30:37;98466.13;;;9.89;77.54
77351;BME280;66420;50.246;14.320;2023-03-31T07:33:22;98452.47;;;9.89;78.26
77351;BME280;66420;50.246;14.320;2023-03-31T07:36:07;98456.16;;;9.93;76.82
77351;BME280;66420;50.246;14.320;2023-03-31T07:38:51;98450.00;;;9.96;78.49
77351;BME280;66420;50.246;14.320;2023-03-31T07:41:36;98459.13;;;10.00;78.00
77351;BME280;66420;50.246;14.320;2023-03-31T07:44:21;98449.13;;;10.04;76.80
77351;BME280;66420;50.246;14.320;2023-03-31T07:47:06;98452.22;;;10.02;77.67
77351;BME280;66420;50.246;14.320;2023-03-31T07:49:51;98441.06;;;10.16;77.18
77351;BME280;66420;50.246;14.320;2023-03-31T07:52:38;98423.53;;;10.17;77.13
77351;BME280;66420;50.246;14.320;2023-03-31T07:55:22;98429.44;;;10.19;76.40
77351;BME280;66420;50.246;14.320;2023-03-31T07:58:10;98422.53;;;10.21;77.12
77351;BME280;66420;50.246;14.320;2023-03-31T08:00:55;98418.25;;;10.33;75.79
77351;BME280;66420;50.246;14.320;2023-03-31T08:03:40;98418.84;;;10.38;77.13
77351;BME280;66420;50.246;14.320;2023-03-31T08:06:25;98421.19;;;10.48;76.32
77351;BME280;66420;50.246;14.320;2023-03-31T08:09:10;98423.22;;;10.51;75.12
77351;BME280;66420;50.246;14.320;2023-03-31T08:11:55;98422.34;;;10.59;76.26
77351;BME280;66420;50.246;14.320;2023-03-31T08:14:40;98431.22;;;10.56;76.96
77351;BME280;66420;50.246;14.320;2023-03-31T08:17:25;98422.81;;;10.61;75.58
77351;BME280;66420;50.246;14.320;2023-03-31T08:20:11;98420.88;;;10.62;76.19
77351;BME280;66420;50.246;14.320;2023-03-31T08:22:56;98422.34;;;10.59;75.83
77351;BME280;66420;50.246;14.320;2023-03-31T08:25:41;98422.81;;;10.61;76.54
77351;BME280;66420;50.246;14.320;2023-03-31T08:28:26;98415.78;;;10.73;75.10
77351;BME280;66420;50.246;14.320;2023-03-31T08:31:10;98402.09;;;10.73;75.42
77351;BME280;66420;50.246;14.320;2023-03-31T08:33:56;98405.41;;;10.78;75.16
77351;BME280;66420;50.246;14.320;2023-03-31T08:36:41;98402.56;;;10.75;74.89
77351;BME280;66420;50.246;14.320;2023-03-31T08:39:26;98402.94;;;10.85;74.33
77351;BME280;66420;50.246;14.320;2023-03-31T08:42:40;98396.16;;;10.71;74.91
77351;BME280;66420;50.246;14.320;2023-03-31T08:45:33;98397.31;;;10.70;73.81
77351;BME280;66420;50.246;14.320;2023-03-31T08:48:29;98404.25;;;10.67;74.41
77351;BME280;66420;50.246;14.320;2023-03-31T08:51:33;98400.25;;;10.64;75.01
77351;BME280;66420;50.246;14.320;2023-03-31T08:54:30;98398.72;;;10.55;75.87
77351;BME280;66420;50.246;14.320;2023-03-31T08:57:19;98391.00;;;10.57;75.89
77351;BME280;66420;50.246;14.320;2023-03-31T09:00:16;98395.16;;;10.42;76.92
77351;BME280;66420;50.246;14.320;2023-03-31T09:03:14;98381.81;;;10.41;77.09
77351;BME280;66420;50.246;14.320;2023-03-31T09:06:06;98372.22;;;10.35;77.13
77351;BME280;66420;50.246;14.320;2023-03-31T09:08:57;98377.78;;;10.26;77.41
77351;BME280;66420;50.246;14.320;2023-03-31T09:11:50;98375.03;;;10.26;78.21
77351;BME280;66420;50.246;14.320;2023-03-31T09:14:40;98374.31;;;10.17;78.41
77351;BME280;66420;50.246;14.320;2023-03-31T09:17:28;98373.16;;;10.18;79.69
77351;BME280;66420;50.246;14.320;2023-03-31T09:20:24;98367.41;;;10.11;78.98
77351;BME280;66420;50.246;14.320;2023-03-31T09:23:30;98354.50;;;10.20;78.64
77351;BME280;66420;50.246;14.320;2023-03-31T09:32:15;98344.88;;;10.14;79.13
77351;BME280;66420;50.246;14.320;2023-03-31T09:35:21;98343.44;;;10.16;78.35
77351;BME280;66420;50.246;14.320;2023-03-31T09:38:10;98339.28;;;10.10;78.59
77351;BME280;66420;50.246;14.320;2023-03-31T09:40:59;98330.28;;;10.10;78.11
77351;BME280;66420;50.246;14.320;2023-03-31T09:43:46;98328.81;;;10.12;79.02
77351;BME280;66420;50.246;14.320;2023-03-31T09:46:34;98320.94;;;10.11;78.75
77351;BME280;66420;50.246;14.320;2023-03-31T09:49:22;98322.19;;;10.13;79.52
77351;BME280;66420;50.246;14.320;2023-03-31T09:52:15;98318.41;;;10.06;79.76
77351;BME280;66420;50.246;14.320;2023-03-31T09:55:16;98313.41;;;10.08;80.77
77351;BME280;66420;50.246;14.320;2023-03-31T09:58:06;98310.44;;;10.13;81.06
77351;BME280;66420;50.246;14.320;2023-03-31T10:00:59;98301.81;;;10.11;80.32
77351;BME280;66420;50.246;14.320;2023-03-31T10:03:53;98291.78;;;10.15;80.76
77351;BME280;66420;50.246;14.320;2023-03-31T10:06:41;98288.88;;;10.20;81.40
77351;BME280;66420;50.246;14.320;2023-03-31T10:09:29;98282.41;;;10.25;79.94
77351;BME280;66420;50.246;14.320;2023-03-31T10:12:17;98278.88;;;10.24;80.24
77351;BME280;66420;50.246;14.320;2023-03-31T10:15:21;98272.72;;;10.27;80.42
77351;BME280;66420;50.246;14.320;2023-03-31T10:18:13;98272.72;;;10.27;80.30
77351;BME280;66420;50.246;14.320;2023-03-31T10:21:01;98277.75;;;10.37;79.51
77351;BME280;66420;50.246;14.320;2023-03-31T10:23:48;98269.09;;;10.35;79.01
77351;BME280;66420;50.246;14.320;2023-03-31T10:26:34;98270.03;;;10.39;78.40
77351;BME280;66420;50.246;14.320;2023-03-31T10:29:22;98263.44;;;10.40;78.45
77351;BME280;66420;50.246;14.320;2023-03-31T10:35:19;98249.50;;;10.45;79.66
77351;BME280;66420;50.246;14.320;2023-03-31T10:38:14;98244.28;;;10.40;79.47
77351;BME280;66420;50.246;14.320;2023-03-31T10:41:00;98234.91;;;10.41;80.14
77351;BME280;66420;50.246;14.320;2023-03-31T10:43:50;98236.19;;;10.44;80.40
77351;BME280;66420;50.246;14.320;2023-03-31T10:46:46;98242.09;;;10.46;79.96
77351;BME280;66420;50.246;14.320;2023-03-31T10:49:38;98232.88;;;10.50;80.43
77351;BME280;66420;50.246;14.320;2023-03-31T10:52:24;98225.47;;;10.39;81.33
77351;BME280;66420;50.246;14.320;2023-03-31T10:55:13;98232.75;;;10.47;81.15
77351;BME280;66420;50.246;14.320;2023-03-31T10:58:06;98223.75;;;10.46;80.82
77351;BME280;66420;50.246;14.320;2023-03-31T11:12:59;98221.66;;;10.31;81.00
77351;BME280;66420;50.246;14.320;2023-03-31T11:19:07;98214.63;;;10.30;82.06
77351;BME280;66420;50.246;14.320;2023-03-31T11:31:49;98204.06;;;10.08;83.77
77351;BME280;66420;50.246;14.320;2023-03-31T11:41:34;98131.72;;;9.93;85.81
77351;BME280;66420;50.246;14.320;2023-03-31T11:44:22;98102.56;;;9.97;85.71
77351;BME280;66420;50.246;14.320;2023-03-31T11:47:14;98103.72;;;9.96;85.08
77351;BME280;66420;50.246;14.320;2023-03-31T11:50:10;98102.25;;;9.99;85.56
77351;BME280;66420;50.246;14.320;2023-03-31T11:52:59;98097.00;;;10.06;86.50
77351;BME280;66420;50.246;14.320;2023-03-31T11:55:47;98112.41;;;10.22;84.50
77351;BME280;66420;50.246;14.320;2023-03-31T11:58:40;98107.41;;;10.25;83.90
77351;BME280;66420;50.246;14.320;2023-03-31T12:01:41;98104.34;;;10.38;85.63
77351;BME280;66420;50.246;14.320;2023-03-31T12:04:37;98100.91;;;10.53;83.75
77351;BME280;66420;50.246;14.320;2023-03-31T12:07:40;98124.38;;;10.54;83.50
77351;BME280;66420;50.246;14.320;2023-03-31T12:10:36;98132.34;;;10.59;83.99
77351;BME280;66420;50.246;14.320;2023-03-31T12:16:22;98124.97;;;10.48;83.44
77351;BME280;66420;50.246;14.320;2023-03-31T12:19:16;98098.50;;;10.52;80.02
77351;BME280;66420;50.246;14.320;2023-03-31T12:25:11;98078.81;;;10.34;78.18
77351;BME280;66420;50.246;14.320;2023-03-31T12:27:57;98076.75;;;10.31;78.44
77351;BME280;66420;50.246;14.320;2023-03-31T12:30:44;98069.91;;;10.37;78.42
77351;BME280;66420;50.246;14.320;2023-03-31T12:33:43;98067.06;;;10.46;78.89
77351;BME280;66420;50.246;14.320;2023-03-31T12:36:48;98074.13;;;10.47;79.34
77351;BME280;66420;50.246;14.320;2023-03-31T12:40:04;98073.44;;;10.50;76.45
77351;BME280;66420;50.246;14.320;2023-03-31T12:49:34;98048.91;;;10.65;76.09
77351;BME280;66420;50.246;14.320;2023-03-31T12:52:36;98047.28;;;10.77;75.68
77351;BME280;66420;50.246;14.320;2023-03-31T12:55:34;98033.88;;;10.99;75.51
77351;BME280;66420;50.246;14.320;2023-03-31T13:01:19;98024.69;;;11.35;74.90
77351;BME280;66420;50.246;14.320;2023-03-31T13:04:19;98017.47;;;11.59;74.40
77351;BME280;66420;50.246;14.320;2023-03-31T13:07:33;97999.06;;;12.06;72.45
77351;BME280;66420;50.246;14.320;2023-03-31T13:13:13;97984.97;;;12.97;70.23
77351;BME280;66420;50.246;14.320;2023-03-31T13:16:00;97971.31;;;13.19;67.80
77351;BME280;66420;50.246;14.320;2023-03-31T13:18:51;97959.81;;;13.33;68.88
77351;BME280;66420;50.246;14.320;2023-03-31T13:21:54;97967.19;;;13.52;66.88
77351;BME280;66420;50.246;14.320;2023-03-31T13:24:40;97943.63;;;13.51;67.49
77351;BME280;66420;50.246;14.320;2023-03-31T13:27:30;97943.97;;;13.72;66.61
77351;BME280;66420;50.246;14.320;2023-03-31T13:39:27;97941.53;;;13.02;70.27
77351;BME280;66420;50.246;14.320;2023-03-31T13:42:30;97919.66;;;12.86;68.54
77351;BME280;66420;50.246;14.320;2023-03-31T13:45:44;97919.75;;;12.71;69.41
77351;BME280;66420;50.246;14.320;2023-03-31T13:49:06;97931.28;;;12.61;69.62
77351;BME280;66420;50.246;14.320;2023-03-31T13:51:59;97943.81;;;12.04;71.20
77351;BME280;66420;50.246;14.320;2023-03-31T13:58:06;97941.53;;;11.12;75.15
77351;BME280;66420;50.246;14.320;2023-03-31T14:06:47;97934.19;;;10.73;76.86
77351;BME280;66420;50.246;14.320;2023-03-31T14:09:35;97935.59;;;10.66;76.14
77351;BME280;66420;50.246;14.320;2023-03-31T14:12:35;97932.63;;;10.59;75.84
77351;BME280;66420;50.246;14.320;2023-03-31T14:15:20;97919.66;;;10.56;72.50
77351;BME280;66420;50.246;14.320;2023-03-31T14:18:06;97924.25;;;10.52;72.92
77351;BME280;66420;50.246;14.320;2023-03-31T14:24:18;97930.16;;;10.54;72.86
77351;BME280;66420;50.246;14.320;2023-03-31T14:30:32;97954.66;;;10.63;72.14
77351;BME280;66420;50.246;14.320;2023-03-31T14:33:37;97940.25;;;10.66;71.11
77351;BME280;66420;50.246;14.320;2023-03-31T14:39:20;97940.81;;;10.72;71.32
77351;BME280;66420;50.246;14.320;2023-03-31T14:42:14;97920.94;;;10.75;69.12
77351;BME280;66420;50.246;14.320;2023-03-31T14:45:06;97926.59;;;10.82;69.78
77351;BME280;66420;50.246;14.320;2023-03-31T14:48:12;97914.78;;;10.78;68.82
77351;BME280;66420;50.246;14.320;2023-03-31T14:51:00;97927.53;;;10.86;70.58
77351;BME280;66420;50.246;14.320;2023-03-31T14:53:46;97937.44;;;10.90;68.79
77351;BME280;66420;50.246;14.320;2023-03-31T14:56:37;97921.28;;;11.17;69.02
77351;BME280;66420;50.246;14.320;2023-03-31T14:59:28;97930.94;;;11.26;68.57
77351;BME280;66420;50.246;14.320;2023-03-31T15:02:17;97933.69;;;11.26;68.09
77351;BME280;66420;50.246;14.320;2023-03-31T15:05:33;97926.59;;;11.25;67.46
77351;BME280;66420;50.246;14.320;2023-03-31T15:08:22;97917.06;;;11.35;70.37
77351;BME280;66420;50.246;14.320;2023-03-31T15:11:11;97915.13;;;11.35;68.76
77351;BME280;66420;50.246;14.320;2023-03-31T15:13:58;97907.53;;;11.44;66.68
77351;BME280;66420;50.246;14.320;2023-03-31T15:16:44;97900.72;;;11.38;67.07
77351;BME280;66420;50.246;14.320;2023-03-31T15:19:32;97883.94;;;11.40;66.44
77351;BME280;66420;50.246;14.320;2023-03-31T15:22:17;97876.50;;;11.40;66.78
77351;BME280;66420;50.246;14.320;2023-03-31T15:25:02;97869.59;;;11.46;67.60
77351;BME280;66420;50.246;14.320;2023-03-31T15:27:51;97862.38;;;11.38;65.97
77351;BME280;66420;50.246;14.320;2023-03-31T15:30:38;97862.22;;;11.31;66.40
77351;BME280;66420;50.246;14.320;2023-03-31T15:33:41;97858.28;;;11.32;67.20
77351;BME280;66420;50.246;14.320;2023-03-31T15:36:27;97850.06;;;11.32;66.23
77351;BME280;66420;50.246;14.320;2023-03-31T15:39:13;97846.66;;;11.35;65.65
77351;BME280;66420;50.246;14.320;2023-03-31T15:42:00;97838.25;;;11.44;66.28
77351;BME280;66420;50.246;14.320;2023-03-31T15:44:56;97832.56;;;11.52;66.22
77351;BME280;66420;50.246;14.320;2023-03-31T15:48:00;97831.56;;;11.61;66.91
77351;BME280;66420;50.246;14.320;2023-03-31T15:50:46;97833.25;;;11.65;66.34
77351;BME280;66420;50.246;14.320;2023-03-31T15:53:36;97827.13;;;11.72;66.14
77351;BME280;66420;50.246;14.320;2023-03-31T15:56:33;97829.63;;;11.77;66.45
77351;BME280;66420;50.246;14.320;2023-03-31T15:59:23;97835.34;;;11.72;64.43
77351;BME280;66420;50.246;14.320;2023-03-31T16:02:17;97834.16;;;11.53;65.21
77351;BME280;66420;50.246;14.320;2023-03-31T16:05:03;97834.25;;;11.41;65.89
77351;BME280;66420;50.246;14.320;2023-03-31T16:07:48;97839.84;;;11.29;66.82
77351;BME280;66420;50.246;14.320;2023-03-31T16:10:33;97850.38;;;11.27;65.95
77351;BME280;66420;50.246;14.320;2023-03-31T16:13:20;97858.31;;;11.17;67.06
77351;BME280;66420;50.246;14.320;2023-03-31T16:16:12;97863.25;;;11.11;67.67
77351;BME280;66420;50.246;14.320;2023-03-31T16:19:03;97864.41;;;10.94;69.61
77351;BME280;66420;50.246;14.320;2023-03-31T16:21:51;97863.31;;;10.83;70.53
77351;BME280;66420;50.246;14.320;2023-03-31T16:24:38;97854.75;;;10.69;70.48
77351;BME280;66420;50.246;14.320;2023-03-31T16:27:23;97855.38;;;10.62;71.14
77351;BME280;66420;50.246;14.320;2023-03-31T16:30:14;97861.34;;;10.68;71.11
77351;BME280;66420;50.246;14.320;2023-03-31T16:33:10;97865.66;;;10.53;70.86
77351;BME280;66420;50.246;14.320;2023-03-31T16:35:56;97865.91;;;10.48;71.47
77351;BME280;66420;50.246;14.320;2023-03-31T16:38:42;97860.19;;;10.53;70.64
77351;BME280;66420;50.246;14.320;2023-03-31T16:41:33;97876.78;;;10.45;71.20
77351;BME280;66420;50.246;14.320;2023-03-31T16:44:19;97869.59;;;10.40;72.04
77351;BME280;66420;50.246;14.320;2023-03-31T16:47:04;97881.22;;;10.37;72.74
77351;BME280;66420;50.246;14.320;2023-03-31T16:49:49;97881.28;;;10.25;72.37
77351;BME280;66420;50.246;14.320;2023-03-31T16:52:34;97881.94;;;10.22;72.22
77351;BME280;66420;50.246;14.320;2023-03-31T16:55:20;97892.78;;;10.18;72.30
77351;BME280;66420;50.246;14.320;2023-03-31T16:58:05;97889.84;;;10.11;73.51
77351;BME280;66420;50.246;14.320;2023-03-31T17:00:50;97871.63;;;10.15;71.97
77351;BME280;66420;50.246;14.320;2023-03-31T17:03:36;97856.38;;;10.02;73.45
77351;BME280;66420;50.246;14.320;2023-03-31T17:06:23;97853.09;;;9.97;73.42
77351;BME280;66420;50.246;14.320;2023-03-31T17:09:08;97854.13;;;9.92;73.71